Time;durP1;ratioP1;P1;durP2;ratioP2;P2;SDS_P1;SDS_P2;PMS_P1;PMS_P2;Temp;Humidity;BMP_temperature;BMP_pressure;BME280_temperature;BME280_humidity;BME280_pressure;Samples;Min_cycle;Max_cycle;Signal;HPM_P1;HPM_P2
2021/08/03 00:02:00;;;;;;;2.55;1.20;;;;;;;;;;5051861;28;20474;-52
2021/08/03 00:04:30;;;;;;;2.10;1.23;;;;;;;;;;5053321;28;20409;-52
2021/08/03 00:06:56;;;;;;;;;;;;;;;;;;5053823;28;20032;-52
2021/08/03 00:09:24;;;;;;;2.30;1.02;;;;;;;;;;5053390;28;19904;-52
2021/08/03 00:11:50;;;;;;;3.55;1.30;;;;;;;;;;5052176;28;20393;-52
2021/08/03 00:14:17;;;;;;;5.25;1.40;;;;;;;;;;5053030;28;20438;-52
2021/08/03 00:16:44;;;;;;;2.25;1.15;;;;;;;;;;5052608;28;20111;-52
2021/08/03 00:19:10;;;;;;;1.90;1.30;;;;;;;;;;5053208;28;20111;-52
2021/08/03 00:21:36;;;;;;;2.22;1.13;;;;;;;;;;5051355;28;20079;-52
2021/08/03 00:24:03;;;;;;;5.20;1.65;;;;;;;;;;5053295;28;20059;-52
2021/08/03 00:26:29;;;;;;;6.53;1.48;;;;;;;;;;5053341;28;20438;-51
2021/08/03 00:28:56;;;;;;;5.03;1.30;;;;;;;;;;5052661;28;20025;-51
2021/08/03 00:31:23;;;;;;;6.28;1.35;;;;;;;;;;5051629;28;20119;-52
2021/08/03 00:33:50;;;;;;;1.35;1.25;;;;;;;;;;5053241;28;20029;-52
2021/08/03 00:36:16;;;;;;;3.83;1.25;;;;;;;;;;5053056;28;20025;-52
2021/08/03 00:38:42;;;;;;;1.85;1.30;;;;;;;;;;5052598;28;20023;-51
2021/08/03 00:41:16;;;;;;;5.47;1.27;;;;;;;;;;5052011;28;20025;-52
2021/08/03 00:43:42;;;;;;;1.60;1.15;;;;;;;;;;5052240;28;20426;-52
2021/08/03 00:46:08;;;;;;;3.78;1.38;;;;;;;;;;5052610;28;20053;-52
2021/08/03 00:48:34;;;;;;;9.88;1.45;;;;;;;;;;5053269;28;20025;-52
2021/08/03 00:51:00;;;;;;;6.15;1.42;;;;;;;;;;5051857;28;20025;-52
2021/08/03 00:53:26;;;;;;;2.28;1.30;;;;;;;;;;5052812;28;20021;-51
2021/08/03 00:55:52;;;;;;;5.10;1.02;;;;;;;;;;5052648;28;20083;-52
2021/08/03 00:58:18;;;;;;;2.63;1.27;;;;;;;;;;5051979;28;20501;-52
2021/08/03 01:00:45;;;;;;;2.90;1.35;;;;;;;;;;5051865;28;20140;-52
2021/08/03 01:03:11;;;;;;;2.15;1.38;;;;;;;;;;5052333;28;20064;-52
2021/08/03 01:05:49;;;;;;;0.98;0.88;;;;;;;;;;5052669;28;20075;-52
2021/08/03 01:08:17;;;;;;;3.45;1.05;;;;;;;;;;5052388;28;20433;-52
2021/08/03 01:10:59;;;;;;;1.85;1.40;;;;;;;;;;5051193;28;20459;-51
2021/08/03 01:13:37;;;;;;;1.42;1.00;;;;;;;;;;5052742;28;20017;-52
2021/08/03 01:16:18;;;;;;;4.30;1.02;;;;;;;;;;5052578;28;20025;-51
2021/08/03 01:18:43;;;;;;;;;;;;;;;;;;5052870;28;20029;-51
2021/08/03 01:21:15;;;;;;;3.80;0.88;;;;;;;;;;5051006;28;20231;-52
2021/08/03 01:24:01;;;;;;;0.70;0.68;;;;;;;;;;5052623;28;20029;-52
2021/08/03 01:26:27;;;;;;;4.07;1.42;;;;;;;;;;5052188;28;20361;-51
2021/08/03 01:28:55;;;;;;;2.03;1.40;;;;;;;;;;5051033;28;20029;-52
2021/08/03 01:31:22;;;;;;;2.88;0.85;;;;;;;;;;5052195;28;20064;-52
2021/08/03 01:33:49;;;;;;;5.28;1.27;;;;;;;;;;5055820;28;20032;-51
2021/08/03 01:36:16;;;;;;;2.97;1.20;;;;;;;;;;5056319;28;20028;-52
2021/08/03 01:38:43;;;;;;;4.03;1.02;;;;;;;;;;5055671;28;20104;-52
2021/08/03 01:41:12;;;;;;;5.40;1.20;;;;;;;;;;5054905;28;20114;-51
2021/08/03 01:43:40;;;;;;;3.40;1.35;;;;;;;;;;5074123;28;20032;-51
2021/08/03 01:46:06;;;;;;;4.75;1.02;;;;;;;;;;5075516;28;20032;-52
2021/08/03 01:48:34;;;;;;;6.35;1.10;;;;;;;;;;5075966;28;20024;-51
2021/08/03 01:51:00;;;;;;;0.90;0.82;;;;;;;;;;5074919;28;20028;-52
2021/08/03 01:53:27;;;;;;;2.28;1.10;;;;;;;;;;5075947;28;20028;-51
2021/08/03 01:55:57;;;;;;;12.70;1.60;;;;;;;;;;5075849;28;20104;-51
2021/08/03 01:58:25;;;;;;;3.10;1.10;;;;;;;;;;5075882;28;20031;-52
2021/08/03 02:00:52;;;;;;;3.75;1.52;;;;;;;;;;5074318;28;20040;-52
2021/08/03 02:03:19;;;;;;;3.42;1.17;;;;;;;;;;5068891;28;20025;-53
2021/08/03 02:05:46;;;;;;;3.90;1.17;;;;;;;;;;5054704;28;20354;-52
2021/08/03 02:08:13;;;;;;;1.80;1.20;;;;;;;;;;5055801;28;20018;-52
2021/08/03 02:10:39;;;;;;;3.55;1.02;;;;;;;;;;5052737;28;20074;-52
2021/08/03 02:13:06;;;;;;;1.50;1.27;;;;;;;;;;5055499;28;20036;-52
2021/08/03 02:15:32;;;;;;;1.27;0.80;;;;;;;;;;5055279;28;20456;-52
2021/08/03 02:17:58;;;;;;;5.38;1.10;;;;;;;;;;5055391;28;20025;-51
2021/08/03 02:20:25;;;;;;;1.40;0.93;;;;;;;;;;5054590;28;20037;-51
2021/08/03 02:22:51;;;;;;;2.35;1.00;;;;;;;;;;5054000;28;20080;-51
2021/08/03 02:25:17;;;;;;;2.00;0.95;;;;;;;;;;5055038;28;20028;-51
2021/08/03 02:27:44;;;;;;;8.88;1.33;;;;;;;;;;5054805;28;20435;-52
2021/08/03 02:30:10;;;;;;;2.88;1.45;;;;;;;;;;5055011;28;20052;-52
2021/08/03 02:32:57;;;;;;;4.15;1.02;;;;;;;;;;5053993;28;20383;-51
2021/08/03 02:35:25;;;;;;;2.20;1.00;;;;;;;;;;5054122;28;20797;-52
2021/08/03 02:37:53;;;;;;;3.67;1.25;;;;;;;;;;5054989;28;20021;-52
2021/08/03 02:40:19;;;;;;;4.05;0.90;;;;;;;;;;5054719;28;20510;-52
2021/08/03 02:42:46;;;;;;;3.13;1.20;;;;;;;;;;5052659;28;20386;-52
2021/08/03 02:45:16;;;;;;;5.57;1.42;;;;;;;;;;5054255;28;20032;-51
2021/08/03 02:47:48;;;;;;;3.50;1.13;;;;;;;;;;5054356;28;20090;-51
2021/08/03 02:50:15;;;;;;;11.05;1.42;;;;;;;;;;5054521;28;20029;-52
2021/08/03 02:52:46;;;;;;;1.42;1.10;;;;;;;;;;5054182;28;20319;-52
2021/08/03 02:55:17;;;;;;;8.52;1.85;;;;;;;;;;5054213;28;20025;-52
2021/08/03 02:57:44;;;;;;;4.75;1.70;;;;;;;;;;5054552;28;20466;-51
2021/08/03 03:00:13;;;;;;;11.07;1.30;;;;;;;;;;5053641;28;20079;-52
2021/08/03 03:02:41;;;;;;;7.18;2.47;;;;;;;;;;5053764;28;20021;-52
2021/08/03 03:05:26;;;;;;;1.42;1.13;;;;;;;;;;5054087;28;20063;-52
2021/08/03 03:07:54;;;;;;;4.82;1.67;;;;;;;;;;5054812;28;20084;-52
2021/08/03 03:10:23;;;;;;;3.88;1.20;;;;;;;;;;5054071;28;20025;-52
2021/08/03 03:12:54;;;;;;;2.47;1.15;;;;;;;;;;5053219;28;20025;-52
2021/08/03 03:15:21;;;;;;;9.25;1.60;;;;;;;;;;5054307;28;20025;-52
2021/08/03 03:17:47;;;;;;;8.50;1.25;;;;;;;;;;5054351;28;20075;-52
2021/08/03 03:20:14;;;;;;;7.55;1.45;;;;;;;;;;5054362;28;20082;-52
2021/08/03 03:22:43;;;;;;;2.20;1.15;;;;;;;;;;5053306;28;20029;-51
2021/08/03 03:25:10;;;;;;;18.52;1.90;;;;;;;;;;5053566;28;20021;-51
2021/08/03 03:27:36;;;;;;;6.75;1.45;;;;;;;;;;5053992;28;20017;-51
2021/08/03 03:30:02;;;;;;;8.32;1.98;;;;;;;;;;5054053;28;20029;-52
2021/08/03 03:32:30;;;;;;;6.03;1.15;;;;;;;;;;5053307;28;20024;-52
2021/08/03 03:34:57;;;;;;;3.40;1.23;;;;;;;;;;5053993;28;20021;-51
2021/08/03 03:37:25;;;;;;;6.35;1.63;;;;;;;;;;5053720;28;20021;-52
2021/08/03 03:39:51;;;;;;;3.55;1.30;;;;;;;;;;5052890;28;20032;-52
2021/08/03 03:42:18;;;;;;;6.00;1.25;;;;;;;;;;5052436;28;20029;-51
2021/08/03 03:44:44;;;;;;;7.85;1.40;;;;;;;;;;5053440;28;20033;-51
2021/08/03 03:47:23;;;;;;;2.85;1.63;;;;;;;;;;5053995;28;20063;-51
2021/08/03 03:49:51;;;;;;;4.72;1.80;;;;;;;;;;5053267;28;20454;-51
2021/08/03 03:52:19;;;;;;;7.68;1.85;;;;;;;;;;5052290;28;20029;-52
2021/08/03 03:54:46;;;;;;;2.92;1.33;;;;;;;;;;5052708;28;20055;-51
2021/08/03 03:57:13;;;;;;;9.07;1.45;;;;;;;;;;5053466;28;20021;-52
2021/08/03 03:59:41;;;;;;;4.38;1.20;;;;;;;;;;5053383;28;20086;-51
2021/08/03 04:02:11;;;;;;;3.72;1.67;;;;;;;;;;5052506;28;20060;-51
2021/08/03 04:04:41;;;;;;;1.75;1.13;;;;;;;;;;5053293;28;20055;-52
2021/08/03 04:07:07;;;;;;;1.02;0.82;;;;;;;;;;5052889;28;20028;-51
2021/08/03 04:09:33;;;;;;;3.15;1.20;;;;;;;;;;5053240;28;20482;-51
2021/08/03 04:11:59;;;;;;;6.82;1.77;;;;;;;;;;5051878;28;20078;-51
2021/08/03 04:14:29;;;;;;;9.65;2.22;;;;;;;;;;5053439;28;20029;-51
2021/08/03 04:16:56;;;;;;;7.20;1.53;;;;;;;;;;5052929;28;20070;-51
2021/08/03 04:19:22;;;;;;;3.88;1.50;;;;;;;;;;5052246;28;20768;-52
2021/08/03 04:21:48;;;;;;;4.07;1.55;;;;;;;;;;5052128;28;20036;-52
2021/08/03 04:24:14;;;;;;;6.47;1.73;;;;;;;;;;5053067;28;20063;-51
2021/08/03 04:26:40;;;;;;;5.35;2.00;;;;;;;;;;5051025;28;20049;-51
2021/08/03 04:29:06;;;;;;;5.22;1.88;;;;;;;;;;5058888;28;20458;-51
2021/08/03 04:31:32;;;;;;;3.15;1.65;;;;;;;;;;5051994;28;20502;-52
2021/08/03 04:33:58;;;;;;;4.97;1.73;;;;;;;;;;5053138;28;20028;-51
2021/08/03 04:36:24;;;;;;;7.90;1.58;;;;;;;;;;5052544;28;20025;-52
2021/08/03 04:38:51;;;;;;;7.32;1.90;;;;;;;;;;5052756;28;20021;-51
2021/08/03 04:41:17;;;;;;;8.60;2.13;;;;;;;;;;5052013;28;20021;-52
2021/08/03 04:43:43;;;;;;;3.65;1.67;;;;;;;;;;5052656;28;20032;-52
2021/08/03 04:46:12;;;;;;;2.28;1.05;;;;;;;;;;5052343;28;20025;-52
2021/08/03 04:48:39;;;;;;;4.50;1.50;;;;;;;;;;5052538;28;20029;-52
2021/08/03 04:51:05;;;;;;;5.55;1.30;;;;;;;;;;5052195;28;20029;-51
2021/08/03 04:53:31;;;;;;;0.85;0.75;;;;;;;;;;5052053;28;20021;-52
2021/08/03 04:55:57;;;;;;;10.43;1.77;;;;;;;;;;5052667;28;20037;-52
2021/08/03 04:58:23;;;;;;;3.38;1.60;;;;;;;;;;5052288;28;20052;-52
2021/08/03 05:00:49;;;;;;;6.28;1.80;;;;;;;;;;5051439;28;20064;-52
2021/08/03 05:03:15;;;;;;;4.13;1.48;;;;;;;;;;5052386;28;20029;-52
2021/08/03 05:05:41;;;;;;;4.05;1.35;;;;;;;;;;5052853;28;20029;-53
2021/08/03 05:08:07;;;;;;;5.00;1.77;;;;;;;;;;5056344;28;20080;-52
2021/08/03 05:10:33;;;;;;;1.67;1.15;;;;;;;;;;5055936;28;20033;-52
2021/08/03 05:13:00;;;;;;;3.03;1.38;;;;;;;;;;5056732;28;20101;-52
2021/08/03 05:15:26;;;;;;;3.65;1.50;;;;;;;;;;5063796;28;20031;-53
2021/08/03 05:17:52;;;;;;;2.15;1.23;;;;;;;;;;5076328;28;20032;-51
2021/08/03 05:20:18;;;;;;;2.15;1.40;;;;;;;;;;5076664;28;20036;-52
2021/08/03 05:22:45;;;;;;;3.97;1.65;;;;;;;;;;5075275;28;20418;-52
2021/08/03 05:25:11;;;;;;;8.77;1.83;;;;;;;;;;5076218;28;20029;-51
2021/08/03 05:27:37;;;;;;;5.55;1.45;;;;;;;;;;5076066;28;20366;-56
2021/08/03 05:30:04;;;;;;;2.65;1.50;;;;;;;;;;5075916;28;20070;-52
2021/08/03 05:32:30;;;;;;;4.30;1.83;;;;;;;;;;5075493;28;20025;-52
2021/08/03 05:34:56;;;;;;;2.88;1.80;;;;;;;;;;5069465;28;20487;-52
2021/08/03 05:37:22;;;;;;;11.70;1.70;;;;;;;;;;5055766;28;20061;-52
2021/08/03 05:39:48;;;;;;;3.70;1.55;;;;;;;;;;5055380;28;20365;-52
2021/08/03 05:42:14;;;;;;;2.15;1.52;;;;;;;;;;5054785;28;20392;-52
2021/08/03 05:44:40;;;;;;;1.23;1.10;;;;;;;;;;5055129;28;20013;-52
2021/08/03 05:47:06;;;;;;;5.82;1.40;;;;;;;;;;5054850;28;20021;-52
2021/08/03 05:49:32;;;;;;;4.25;2.20;;;;;;;;;;5054731;28;20025;-52
2021/08/03 05:52:00;;;;;;;9.52;2.22;;;;;;;;;;5054969;28;20131;-52
2021/08/03 05:54:26;;;;;;;7.97;2.60;;;;;;;;;;5055602;28;20048;-52
2021/08/03 05:56:52;;;;;;;3.17;1.88;;;;;;;;;;5055705;28;20450;-52
2021/08/03 05:59:18;;;;;;;2.85;1.75;;;;;;;;;;5055352;28;20033;-52
2021/08/03 06:01:44;;;;;;;6.35;2.00;;;;;;;;;;5054971;28;20074;-52
2021/08/03 06:04:10;;;;;;;7.47;2.25;;;;;;;;;;5055777;28;20026;-52
2021/08/03 06:06:40;;;;;;;9.52;2.30;;;;;;;;;;5055394;28;20023;-52
2021/08/03 06:09:11;;;;;;;4.00;2.25;;;;;;;;;;5055273;28;20025;-52
2021/08/03 06:11:47;;;;;;;2.80;1.65;;;;;;;;;;5054630;28;20442;-52
2021/08/03 06:14:16;;;;;;;29.52;2.13;;;;;;;;;;5055712;28;20037;-52
2021/08/03 06:16:42;;;;;;;4.28;1.80;;;;;;;;;;5055001;28;20021;-52
2021/08/03 06:19:11;;;;;;;3.25;1.60;;;;;;;;;;5054388;28;20108;-52
2021/08/03 06:21:37;;;;;;;4.35;1.90;;;;;;;;;;5054405;28;20121;-52
2021/08/03 06:24:03;;;;;;;6.07;1.73;;;;;;;;;;5054847;28;20526;-52
2021/08/03 06:26:29;;;;;;;4.80;1.98;;;;;;;;;;5054831;28;20068;-52
2021/08/03 06:28:56;;;;;;;2.08;1.52;;;;;;;;;;5055272;28;20025;-52
2021/08/03 06:31:26;;;;;;;8.52;1.88;;;;;;;;;;5054401;28;20032;-52
2021/08/03 06:33:52;;;;;;;;;;;;;;;;;;5055624;28;20025;-52
2021/08/03 06:36:18;;;;;;;3.67;1.50;;;;;;;;;;5054416;28;20254;-52
2021/08/03 06:38:44;;;;;;;4.80;2.17;;;;;;;;;;5054715;28;20032;-52
2021/08/03 06:41:29;;;;;;;7.05;1.60;;;;;;;;;;5052462;28;20041;-52
2021/08/03 06:43:59;;;;;;;4.82;1.38;;;;;;;;;;5054500;28;20021;-52
2021/08/03 06:46:27;;;;;;;2.78;1.38;;;;;;;;;;5054786;28;20457;-52
2021/08/03 06:48:57;;;;;;;4.00;1.80;;;;;;;;;;5054482;28;20100;-52
2021/08/03 06:51:23;;;;;;;;;;;;;;;;;;5054096;28;20135;-52
2021/08/03 06:53:49;;;;;;;13.38;1.88;;;;;;;;;;5054753;28;19991;-52
2021/08/03 06:56:19;;;;;;;2.13;1.75;;;;;;;;;;5054478;28;20032;-52
2021/08/03 06:58:48;;;;;;;2.45;1.33;;;;;;;;;;5054833;28;20052;-52
2021/08/03 07:01:18;;;;;;;4.65;1.45;;;;;;;;;;5053428;28;20040;-53
2021/08/03 07:03:47;;;;;;;3.88;1.95;;;;;;;;;;5054586;28;20025;-52
2021/08/03 07:06:14;;;;;;;4.50;1.75;;;;;;;;;;5054465;28;20029;-52
2021/08/03 07:08:41;;;;;;;2.65;2.00;;;;;;;;;;5054479;28;20125;-52
2021/08/03 07:11:09;;;;;;;3.65;2.20;;;;;;;;;;5053219;28;20040;-52
2021/08/03 07:13:37;;;;;;;2.90;1.50;;;;;;;;;;5054298;28;20358;-52
2021/08/03 07:16:03;;;;;;;5.57;1.90;;;;;;;;;;5054258;28;20070;-52
2021/08/03 07:18:29;;;;;;;1.88;1.33;;;;;;;;;;5053549;28;20025;-52
2021/08/03 07:20:56;;;;;;;6.25;2.13;;;;;;;;;;5053225;28;20039;-52
2021/08/03 07:23:22;;;;;;;6.32;1.65;;;;;;;;;;5053231;28;20056;-52
2021/08/03 07:25:50;;;;;;;5.30;1.80;;;;;;;;;;5053703;28;20079;-52
2021/08/03 07:28:16;;;;;;;2.22;1.60;;;;;;;;;;5053810;28;20067;-52
2021/08/03 07:30:42;;;;;;;5.53;1.70;;;;;;;;;;5053261;28;20029;-52
2021/08/03 07:33:12;;;;;;;2.25;1.58;;;;;;;;;;5053696;28;20018;-52
2021/08/03 07:35:39;;;;;;;2.78;1.75;;;;;;;;;;5053923;28;20458;-51
2021/08/03 07:38:06;;;;;;;4.05;1.67;;;;;;;;;;5053768;28;20053;-52
2021/08/03 07:40:32;;;;;;;7.10;1.58;;;;;;;;;;5053186;28;20040;-52
2021/08/03 07:42:58;;;;;;;12.68;1.70;;;;;;;;;;5053057;28;20530;-52
2021/08/03 07:45:24;;;;;;;4.25;1.90;;;;;;;;;;5053693;28;20057;-52
2021/08/03 07:47:50;;;;;;;2.42;1.60;;;;;;;;;;5053541;28;20029;-52
2021/08/03 07:50:16;;;;;;;2.63;1.65;;;;;;;;;;5053952;28;20021;-52
2021/08/03 07:52:41;;;;;;;3.97;1.45;;;;;;;;;;5053051;28;20021;-52
2021/08/03 07:55:08;;;;;;;5.55;1.60;;;;;;;;;;5053228;28;20039;-52
2021/08/03 07:57:34;;;;;;;4.10;1.50;;;;;;;;;;5053695;28;20017;-52
2021/08/03 08:00:00;;;;;;;2.33;1.60;;;;;;;;;;5053102;28;20086;-52
2021/08/03 08:02:26;;;;;;;5.32;1.45;;;;;;;;;;5052831;28;20324;-52
2021/08/03 08:04:52;;;;;;;2.40;1.65;;;;;;;;;;5052654;28;20036;-52
2021/08/03 08:07:17;;;;;;;3.50;1.70;;;;;;;;;;5053299;28;20029;-52
2021/08/03 08:09:43;;;;;;;8.93;1.80;;;;;;;;;;5052887;28;20434;-52
2021/08/03 08:12:09;;;;;;;2.30;1.38;;;;;;;;;;5050013;28;20021;-52
2021/08/03 08:14:35;;;;;;;5.05;1.70;;;;;;;;;;5053187;28;20099;-52
2021/08/03 08:17:01;;;;;;;2.53;1.95;;;;;;;;;;5053155;28;20059;-52
2021/08/03 08:19:28;;;;;;;3.47;1.70;;;;;;;;;;5052627;28;20036;-52
2021/08/03 08:21:54;;;;;;;4.75;2.10;;;;;;;;;;5052240;28;20033;-52
2021/08/03 08:24:20;;;;;;;15.30;2.63;;;;;;;;;;5053208;28;20353;-52
2021/08/03 08:26:47;;;;;;;2.92;1.73;;;;;;;;;;5052636;28;20468;-52
2021/08/03 08:29:16;;;;;;;5.32;1.80;;;;;;;;;;5052809;28;20068;-52
2021/08/03 08:31:42;;;;;;;2.53;1.90;;;;;;;;;;5051995;28;20366;-52
2021/08/03 08:34:08;;;;;;;3.25;1.55;;;;;;;;;;5052357;28;20017;-52
2021/08/03 08:36:34;;;;;;;3.58;1.83;;;;;;;;;;5052830;28;20021;-52
2021/08/03 08:39:00;;;;;;;6.38;1.85;;;;;;;;;;5052892;28;20446;-52
2021/08/03 08:41:26;;;;;;;3.97;1.70;;;;;;;;;;5051324;28;20025;-52
2021/08/03 08:43:53;;;;;;;3.08;1.98;;;;;;;;;;5052859;28;20021;-52
2021/08/03 08:46:19;;;;;;;1.50;1.30;;;;;;;;;;5052790;28;20025;-52
2021/08/03 08:48:45;;;;;;;6.40;1.42;;;;;;;;;;5051924;28;20021;-52
2021/08/03 08:51:11;;;;;;;5.72;1.77;;;;;;;;;;5052042;28;20188;-52
2021/08/03 08:53:37;;;;;;;5.43;1.38;;;;;;;;;;5052482;28;20131;-52
2021/08/03 08:56:04;;;;;;;1.35;1.17;;;;;;;;;;5052656;28;20039;-52
2021/08/03 08:58:33;;;;;;;4.63;1.60;;;;;;;;;;5052104;28;20067;-52
2021/08/03 09:01:00;;;;;;;2.65;2.00;;;;;;;;;;5052041;28;20041;-52
2021/08/03 09:03:26;;;;;;;1.65;1.48;;;;;;;;;;5052415;28;20020;-52
2021/08/03 09:06:02;;;;;;;1.48;1.25;;;;;;;;;;5052625;28;20025;-52
2021/08/03 09:08:49;;;;;;;1.98;1.17;;;;;;;;;;5052311;28;20028;-52
2021/08/03 09:11:16;;;;;;;6.95;1.70;;;;;;;;;;5051691;28;20025;-52
2021/08/03 09:13:54;;;;;;;2.72;1.52;;;;;;;;;;5052245;28;20029;-52
2021/08/03 09:16:21;;;;;;;1.33;1.23;;;;;;;;;;5052655;28;20355;-52
2021/08/03 09:18:49;;;;;;;1.52;1.23;;;;;;;;;;5052051;28;20052;-52
2021/08/03 09:21:29;;;;;;;3.25;1.48;;;;;;;;;;5051830;28;20095;-53
2021/08/03 09:23:57;;;;;;;2.22;1.67;;;;;;;;;;5052409;28;20029;-52
2021/08/03 09:26:41;;;;;;;3.95;1.55;;;;;;;;;;5052564;28;20028;-51
2021/08/03 09:29:11;;;;;;;4.47;1.65;;;;;;;;;;5052102;28;20025;-52
2021/08/03 09:31:38;;;;;;;2.55;1.67;;;;;;;;;;5051584;28;20052;-52
2021/08/03 09:34:11;;;;;;;1.80;1.50;;;;;;;;;;5052157;28;20037;-52
2021/08/03 09:36:55;;;;;;;1.80;1.55;;;;;;;;;;5052139;28;20021;-52
2021/08/03 09:39:37;;;;;;;3.10;1.20;;;;;;;;;;5052218;28;20025;-52
2021/08/03 09:42:09;;;;;;;1.30;1.20;;;;;;;;;;5051454;28;20029;-52
2021/08/03 09:44:36;;;;;;;2.50;1.48;;;;;;;;;;5052394;28;20017;-52
2021/08/03 09:47:02;;;;;;;1.63;1.25;;;;;;;;;;5051741;28;20516;-52
2021/08/03 09:49:37;;;;;;;3.45;1.40;;;;;;;;;;5051914;28;20139;-52
2021/08/03 09:52:11;;;;;;;2.28;1.50;;;;;;;;;;5051649;28;20116;-52
2021/08/03 09:54:37;;;;;;;5.78;1.55;;;;;;;;;;5055924;28;20025;-52
2021/08/03 09:57:19;;;;;;;1.85;1.38;;;;;;;;;;5055863;28;20078;-52
2021/08/03 09:59:44;;;;;;;1.10;1.02;;;;;;;;;;5055603;28;20037;-52
2021/08/03 10:02:13;;;;;;;1.83;1.20;;;;;;;;;;5055017;28;20401;-52
2021/08/03 10:04:41;;;;;;;2.40;1.45;;;;;;;;;;5055685;28;20043;-52
2021/08/03 10:07:07;;;;;;;2.70;1.42;;;;;;;;;;5055550;28;20036;-52
2021/08/03 10:09:34;;;;;;;1.40;1.30;;;;;;;;;;5055484;28;20363;-55
2021/08/03 10:12:01;;;;;;;3.70;1.38;;;;;;;;;;5054176;28;20442;-52
2021/08/03 10:14:27;;;;;;;1.73;1.30;;;;;;;;;;5055335;28;20052;-53
2021/08/03 10:16:53;;;;;;;2.72;1.83;;;;;;;;;;5055942;28;20071;-52
2021/08/03 10:19:24;;;;;;;2.03;1.73;;;;;;;;;;5055241;28;20075;-52
2021/08/03 10:21:50;;;;;;;;;;;;;;;;;;5055045;28;20040;-52
2021/08/03 10:24:25;;;;;;;6.10;2.25;;;;;;;;;;5055510;28;19905;-52
2021/08/03 10:27:03;;;;;;;1.35;1.00;;;;;;;;;;5055147;28;20029;-52
2021/08/03 10:29:29;;;;;;;4.32;1.77;;;;;;;;;;5055062;28;20025;-52
2021/08/03 10:31:55;;;;;;;1.30;1.20;;;;;;;;;;5054454;28;20025;-52
2021/08/03 10:34:40;;;;;;;2.83;1.65;;;;;;;;;;5057027;28;20029;-52
2021/08/03 10:37:06;;;;;;;1.98;1.45;;;;;;;;;;5074781;28;20029;-52
2021/08/03 10:39:48;;;;;;;2.28;1.58;;;;;;;;;;5074773;28;20446;-52
2021/08/03 10:42:14;;;;;;;8.90;1.75;;;;;;;;;;5074019;28;20052;-52
2021/08/03 10:44:57;;;;;;;1.40;1.30;;;;;;;;;;5074879;28;20068;-52
2021/08/03 10:47:32;;;;;;;4.38;1.98;;;;;;;;;;5074997;28;20036;-52
2021/08/03 10:49:58;;;;;;;2.13;1.20;;;;;;;;;;5074768;28;20028;-52
2021/08/03 10:52:43;;;;;;;2.58;1.40;;;;;;;;;;5074095;28;20017;-52
2021/08/03 10:55:08;;;;;;;2.40;1.45;;;;;;;;;;5074530;28;20115;-52
2021/08/03 10:57:34;;;;;;;4.75;1.85;;;;;;;;;;5074882;28;20052;-52
2021/08/03 11:00:01;;;;;;;2.25;1.55;;;;;;;;;;5074168;28;20028;-52
2021/08/03 11:02:33;;;;;;;2.35;1.52;;;;;;;;;;5073785;28;20110;-52
2021/08/03 11:04:59;;;;;;;4.45;1.20;;;;;;;;;;5073730;28;20161;-52
2021/08/03 11:07:25;;;;;;;1.80;1.30;;;;;;;;;;5074503;28;20032;-52
2021/08/03 11:09:52;;;;;;;3.55;1.70;;;;;;;;;;5074392;28;20521;-52
2021/08/03 11:12:36;;;;;;;3.60;1.33;;;;;;;;;;5073426;28;20028;-52
2021/08/03 11:15:25;;;;;;;2.05;1.30;;;;;;;;;;5074075;28;20107;-52
2021/08/03 11:17:55;;;;;;;2.78;1.20;;;;;;;;;;5074016;28;20041;-52
2021/08/03 11:20:21;;;;;;;;;;;;;;;;;;5074351;28;20139;-52
2021/08/03 11:22:51;;;;;;;3.95;1.45;;;;;;;;;;5073098;28;19967;-52
2021/08/03 11:25:18;;;;;;;5.70;1.73;;;;;;;;;;5074194;28;20035;-52
2021/08/03 11:27:44;;;;;;;1.33;0.85;;;;;;;;;;5074097;28;20024;-51
2021/08/03 11:30:10;;;;;;;1.20;1.00;;;;;;;;;;5073573;28;20353;-52
2021/08/03 11:32:36;;;;;;;1.73;0.95;;;;;;;;;;5073173;28;20028;-52
2021/08/03 11:35:02;;;;;;;1.13;0.98;;;;;;;;;;5073865;28;20027;-52
2021/08/03 11:37:28;;;;;;;3.72;1.27;;;;;;;;;;5073290;28;20361;-51
2021/08/03 11:39:56;;;;;;;1.83;1.02;;;;;;;;;;5073927;28;20407;-52
2021/08/03 11:42:33;;;;;;;2.15;1.20;;;;;;;;;;5072379;28;20021;-52
2021/08/03 11:45:04;;;;;;;2.22;1.33;;;;;;;;;;5073937;28;20023;-52
2021/08/03 11:47:40;;;;;;;4.13;1.63;;;;;;;;;;5073437;28;20104;-51
2021/08/03 11:50:07;;;;;;;3.65;1.40;;;;;;;;;;5073724;28;20028;-51
2021/08/03 11:52:33;;;;;;;2.15;1.40;;;;;;;;;;5072411;28;20025;-52
2021/08/03 11:54:59;;;;;;;3.03;1.30;;;;;;;;;;5073601;28;20461;-52
2021/08/03 11:57:25;;;;;;;14.13;1.63;;;;;;;;;;5073595;28;20103;-52
2021/08/03 12:00:03;;;;;;;1.88;1.05;;;;;;;;;;5073502;28;20031;-52
2021/08/03 12:02:29;;;;;;;1.67;1.25;;;;;;;;;;5071845;28;20048;-52
2021/08/03 12:05:04;;;;;;;1.63;1.17;;;;;;;;;;5073655;28;20100;-52
2021/08/03 12:07:30;;;;;;;1.23;1.08;;;;;;;;;;5072875;28;20510;-52
2021/08/03 12:09:56;;;;;;;6.50;1.38;;;;;;;;;;5073192;28;20087;-52
2021/08/03 12:12:22;;;;;;;1.67;1.08;;;;;;;;;;5072268;28;20438;-52
2021/08/03 12:14:48;;;;;;;2.08;1.55;;;;;;;;;;5073379;28;20043;-52
2021/08/03 12:17:27;;;;;;;1.90;1.38;;;;;;;;;;5071945;28;20424;-52
2021/08/03 12:19:53;;;;;;;2.42;1.42;;;;;;;;;;5072619;28;20450;-52
2021/08/03 12:22:26;;;;;;;1.50;1.25;;;;;;;;;;5071792;28;20068;-52
2021/08/03 12:24:56;;;;;;;1.33;0.98;;;;;;;;;;5073435;28;20024;-51
2021/08/03 12:27:22;;;;;;;1.30;1.20;;;;;;;;;;5072657;28;20438;-52
2021/08/03 12:29:48;;;;;;;4.13;1.67;;;;;;;;;;5073060;28;20032;-52
2021/08/03 12:32:34;;;;;;;2.45;1.65;;;;;;;;;;5071995;28;20028;-52
2021/08/03 12:35:08;;;;;;;2.75;1.85;;;;;;;;;;5072544;28;20021;-51
2021/08/03 12:37:34;;;;;;;1.30;1.20;;;;;;;;;;5072935;28;20036;-52
2021/08/03 12:40:00;;;;;;;2.42;1.25;;;;;;;;;;5072352;28;20276;-51
2021/08/03 12:44:58;;;;;;;1.83;1.10;;;;;;;;;;5072839;28;20043;-51
2021/08/03 12:47:26;;;;;;;2.60;1.50;;;;;;;;;;5072999;28;20025;-52
2021/08/03 12:50:00;;;;;;;1.65;1.27;;;;;;;;;;5072489;28;20461;-52
2021/08/03 12:52:26;;;;;;;1.30;1.20;;;;;;;;;;5071755;28;20620;-52
2021/08/03 12:54:56;;;;;;;2.65;1.40;;;;;;;;;;5072972;28;20119;-52
2021/08/03 12:57:23;;;;;;;1.25;1.15;;;;;;;;;;5072550;28;20028;-51
2021/08/03 12:59:50;;;;;;;1.73;1.33;;;;;;;;;;5072774;28;20075;-51
2021/08/03 13:02:16;;;;;;;1.13;1.02;;;;;;;;;;5071757;28;20036;-53
2021/08/03 13:04:43;;;;;;;1.75;1.40;;;;;;;;;;5072488;28;20031;-51
2021/08/03 13:07:09;;;;;;;2.90;1.35;;;;;;;;;;5072350;28;20025;-51
2021/08/03 13:09:36;;;;;;;1.55;1.13;;;;;;;;;;5072846;28;20026;-52
2021/08/03 13:12:03;;;;;;;1.48;1.30;;;;;;;;;;5071721;28;20095;-52
2021/08/03 13:14:29;;;;;;;3.45;1.20;;;;;;;;;;5071764;28;20462;-52
2021/08/03 13:16:56;;;;;;;2.05;1.27;;;;;;;;;;5071883;28;20028;-52
2021/08/03 13:19:23;;;;;;;1.52;1.42;;;;;;;;;;5071832;28;20029;-52
2021/08/03 13:21:49;;;;;;;1.75;1.35;;;;;;;;;;5071281;28;20045;-52
2021/08/03 13:24:15;;;;;;;2.15;1.20;;;;;;;;;;5072491;28;20324;-52
2021/08/03 13:26:41;;;;;;;1.63;1.30;;;;;;;;;;5072276;28;20031;-52
2021/08/03 13:29:07;;;;;;;1.20;1.10;;;;;;;;;;5076200;28;20020;-52
2021/08/03 13:31:33;;;;;;;2.45;1.25;;;;;;;;;;5074987;28;20028;-52
2021/08/03 13:33:59;;;;;;;1.38;1.05;;;;;;;;;;5075663;28;20462;-52
2021/08/03 13:36:25;;;;;;;1.10;1.05;;;;;;;;;;5076040;28;20031;-52
2021/08/03 13:38:51;;;;;;;1.05;1.05;;;;;;;;;;5076306;28;20090;-51
2021/08/03 13:41:17;;;;;;;1.25;1.10;;;;;;;;;;5075237;28;20124;-52
2021/08/03 13:43:43;;;;;;;3.65;1.33;;;;;;;;;;5075943;28;20028;-52
2021/08/03 13:46:09;;;;;;;1.20;1.10;;;;;;;;;;5076354;28;20489;-51
2021/08/03 13:48:35;;;;;;;2.08;1.30;;;;;;;;;;5075944;28;20074;-51
2021/08/03 13:51:01;;;;;;;1.20;1.10;;;;;;;;;;5074806;28;20032;-52
2021/08/03 13:53:27;;;;;;;2.00;1.73;;;;;;;;;;5076072;28;20119;-51
2021/08/03 13:55:53;;;;;;;2.60;1.48;;;;;;;;;;5076083;28;20096;-52
2021/08/03 13:58:19;;;;;;;1.05;0.90;;;;;;;;;;5075227;28;20036;-52
2021/08/03 14:00:45;;;;;;;1.35;1.20;;;;;;;;;;5074699;28;20063;-52
2021/08/03 14:03:11;;;;;;;2.83;1.63;;;;;;;;;;5075560;28;20028;-52
2021/08/03 14:05:37;;;;;;;1.15;1.02;;;;;;;;;;5075789;28;20080;-52
2021/08/03 14:08:03;;;;;;;1.23;0.90;;;;;;;;;;5075421;28;20052;-52
2021/08/03 14:10:29;;;;;;;1.13;1.02;;;;;;;;;;5075513;28;20031;-52
2021/08/03 14:12:55;;;;;;;2.65;1.58;;;;;;;;;;5073370;28;20032;-52
2021/08/03 14:15:21;;;;;;;1.35;1.10;;;;;;;;;;5075289;28;20086;-51
2021/08/03 14:17:48;;;;;;;2.03;1.20;;;;;;;;;;5075674;28;20056;-52
2021/08/03 14:20:14;;;;;;;3.13;1.27;;;;;;;;;;5075341;28;20047;-52
2021/08/03 14:22:42;;;;;;;1.75;0.80;;;;;;;;;;5074246;28;20029;-51
2021/08/03 14:25:08;;;;;;;1.20;0.88;;;;;;;;;;5075042;28;20028;-52
2021/08/03 14:27:35;;;;;;;2.22;1.02;;;;;;;;;;5075525;28;20017;-52
2021/08/03 14:30:02;;;;;;;0.60;0.60;;;;;;;;;;5075460;28;20055;-51
2021/08/03 14:32:28;;;;;;;1.17;1.08;;;;;;;;;;5074391;28;20024;-52
2021/08/03 14:34:54;;;;;;;1.85;1.08;;;;;;;;;;5074929;28;20020;-52
2021/08/03 14:37:20;;;;;;;0.85;0.80;;;;;;;;;;5075182;28;20441;-52
2021/08/03 14:39:46;;;;;;;1.67;1.23;;;;;;;;;;5074045;28;20035;-51
2021/08/03 14:42:12;;;;;;;0.90;0.70;;;;;;;;;;5074554;28;20034;-51
2021/08/03 14:44:38;;;;;;;1.50;0.98;;;;;;;;;;5074858;28;20032;-52
2021/08/03 14:47:04;;;;;;;5.30;1.10;;;;;;;;;;5074610;28;20025;-52
2021/08/03 14:49:30;;;;;;;1.25;1.13;;;;;;;;;;5074989;28;20028;-52
2021/08/03 14:51:56;;;;;;;1.15;1.05;;;;;;;;;;5073527;28;20024;-51
2021/08/03 14:54:24;;;;;;;1.63;1.20;;;;;;;;;;5074642;28;20032;-52